createdAt,value
2023-01-05T00:00:25.590Z,10.80
2023-01-05T00:01:02.045Z,10.80
2023-01-05T00:01:35.168Z,10.80
2023-01-05T00:02:07.039Z,10.80
2023-01-05T00:02:39.352Z,10.80
2023-01-05T00:03:12.113Z,10.80
2023-01-05T00:03:43.948Z,10.80
2023-01-05T00:04:16.825Z,10.80
2023-01-05T00:04:48.715Z,10.80
2023-01-05T00:05:20.512Z,10.80
2023-01-05T00:05:53.288Z,10.90
2023-01-05T00:06:25.142Z,10.90
2023-01-05T00:06:56.913Z,10.90
2023-01-05T00:07:29.779Z,10.90
2023-01-05T00:08:01.576Z,10.90
2023-01-05T00:08:37.361Z,10.90
2023-01-05T00:09:14.249Z,10.80
2023-01-05T00:09:46.059Z,10.80
2023-01-05T00:10:34.119Z,10.90
2023-01-05T00:11:25.380Z,10.90
2023-01-05T00:12:15.616Z,10.90
2023-01-05T00:13:05.887Z,10.90
2023-01-05T00:13:56.288Z,10.90
2023-01-05T00:14:48.933Z,10.90
2023-01-05T00:15:39.525Z,10.90
2023-01-05T00:16:31.499Z,10.90
2023-01-05T00:17:22.538Z,10.90
2023-01-05T00:18:13.027Z,10.90
2023-01-05T00:19:03.491Z,10.90
2023-01-05T00:19:53.727Z,10.90
2023-01-05T00:20:44.199Z,10.90
2023-01-05T00:21:34.676Z,10.90
2023-01-05T00:22:34.527Z,10.90
2023-01-05T00:23:07.100Z,10.90
2023-01-05T00:23:39.863Z,10.90
2023-01-05T00:24:11.682Z,10.90
2023-01-05T00:24:43.485Z,10.80
2023-01-05T00:25:19.207Z,10.80
2023-01-05T00:25:52.351Z,10.80
2023-01-05T00:26:24.170Z,10.80
2023-01-05T00:26:56.974Z,10.90
2023-01-05T00:27:29.931Z,10.90
2023-01-05T00:28:02.708Z,10.90
2023-01-05T00:28:34.515Z,10.90
2023-01-05T00:29:06.333Z,10.90
2023-01-05T00:29:39.081Z,10.90
2023-01-05T00:30:13.760Z,10.90
2023-01-05T00:30:47.955Z,10.90
2023-01-05T00:31:19.787Z,10.90
2023-01-05T00:31:51.629Z,10.90
2023-01-05T00:32:23.686Z,10.90
2023-01-05T00:32:56.508Z,10.90
2023-01-05T00:33:28.311Z,10.90
2023-01-05T00:34:00.130Z,10.90
2023-01-05T00:34:32.907Z,10.90
2023-01-05T00:35:05.263Z,10.90
2023-01-05T00:35:38.890Z,11.00
2023-01-05T00:36:11.244Z,11.00
2023-01-05T00:36:43.034Z,10.90
2023-01-05T00:37:15.811Z,10.90
2023-01-05T00:37:47.747Z,10.90
2023-01-05T00:38:20.524Z,10.90
2023-01-05T00:38:52.380Z,10.90
2023-01-05T00:39:24.372Z,10.90
2023-01-05T00:39:57.187Z,10.90
2023-01-05T00:40:29.027Z,10.90
2023-01-05T00:41:03.106Z,10.90
2023-01-05T00:41:34.933Z,11.00
2023-01-05T00:42:06.688Z,11.00
2023-01-05T00:42:39.628Z,11.00
2023-01-05T00:43:11.429Z,11.00
2023-01-05T00:43:43.238Z,11.00
2023-01-05T00:44:15.973Z,11.00
2023-01-05T00:44:47.872Z,11.00
2023-01-05T00:45:20.326Z,11.00
2023-01-05T00:45:53.146Z,11.00
2023-01-05T00:46:24.979Z,11.00
2023-01-05T00:46:56.854Z,11.00
2023-01-05T00:47:29.682Z,11.00
2023-01-05T00:48:01.524Z,11.00
2023-01-05T00:48:33.460Z,11.00
2023-01-05T00:49:06.207Z,11.00
2023-01-05T00:49:38.031Z,11.00
2023-01-05T00:50:12.668Z,11.00
2023-01-05T00:50:47.352Z,11.00
2023-01-05T00:51:19.222Z,11.00
2023-01-05T00:51:51.070Z,11.00
2023-01-05T00:52:23.823Z,11.00
2023-01-05T00:52:55.634Z,11.00
2023-01-05T00:53:27.399Z,11.00
2023-01-05T00:54:00.166Z,11.10
2023-01-05T00:54:32.219Z,11.00
2023-01-05T00:55:05.548Z,11.00
2023-01-05T00:55:37.416Z,11.10
2023-01-05T00:56:10.571Z,11.10
2023-01-05T00:56:43.349Z,11.00
2023-01-05T00:57:15.573Z,11.00
2023-01-05T00:57:49.026Z,11.00
2023-01-05T00:58:24.061Z,11.00
2023-01-05T00:58:56.024Z,11.00
2023-01-05T00:59:28.854Z,11.00
2023-01-05T01:00:01.983Z,11.00
2023-01-05T01:00:34.771Z,11.00
2023-01-05T01:01:09.668Z,11.10
2023-01-05T01:01:41.799Z,11.00
2023-01-05T01:02:15.467Z,11.00
2023-01-05T01:02:50.511Z,11.00
2023-01-05T01:03:22.454Z,11.00
2023-01-05T01:03:56.323Z,11.10
2023-01-05T01:04:28.182Z,11.10
2023-01-05T01:05:00.929Z,11.00
2023-01-05T01:05:32.762Z,11.00
2023-01-05T01:06:04.846Z,11.00
2023-01-05T01:06:37.619Z,11.00
2023-01-05T01:07:09.459Z,11.10
2023-01-05T01:07:42.332Z,11.10
2023-01-05T01:08:14.157Z,11.10
2023-01-05T01:08:46.029Z,11.00
2023-01-05T01:09:17.864Z,11.00
2023-01-05T01:09:50.686Z,11.10
2023-01-05T01:10:22.506Z,11.10
2023-01-05T01:10:54.274Z,11.10
2023-01-05T01:11:28.483Z,11.10
2023-01-05T01:12:00.422Z,11.10
2023-01-05T01:12:32.232Z,11.10
2023-01-05T01:13:04.997Z,11.10
2023-01-05T01:13:38.782Z,11.10
2023-01-05T01:14:11.752Z,11.10
2023-01-05T01:14:47.781Z,11.10
2023-01-05T01:15:19.761Z,11.10
2023-01-05T01:15:52.528Z,11.10
2023-01-05T01:16:24.593Z,11.10
2023-01-05T01:16:57.439Z,11.10
2023-01-05T01:17:30.758Z,11.10
2023-01-05T01:18:02.552Z,11.20
2023-01-05T01:18:35.491Z,11.10
2023-01-05T01:19:07.306Z,11.10
2023-01-05T01:19:39.257Z,11.10
2023-01-05T01:20:12.321Z,11.10
2023-01-05T01:20:44.128Z,11.10
2023-01-05T01:21:16.016Z,11.10
2023-01-05T01:21:49.163Z,11.10
2023-01-05T01:22:20.969Z,11.10
2023-01-05T01:22:52.805Z,11.10
2023-01-05T01:23:25.603Z,11.10
2023-01-05T01:23:57.505Z,11.10
2023-01-05T01:24:29.508Z,11.10
2023-01-05T01:25:02.281Z,11.10
2023-01-05T01:25:34.086Z,11.10
2023-01-05T01:26:06.656Z,11.10
2023-01-05T01:26:40.787Z,11.10
2023-01-05T01:27:12.665Z,11.10
2023-01-05T01:27:44.431Z,11.10
2023-01-05T01:28:17.312Z,11.10
2023-01-05T01:28:49.392Z,11.10
2023-01-05T01:29:22.282Z,11.10
2023-01-05T01:29:55.023Z,11.10
2023-01-05T01:30:26.924Z,11.10
2023-01-05T01:30:58.840Z,11.10
2023-01-05T01:31:31.656Z,11.10
2023-01-05T01:32:03.827Z,11.10
2023-01-05T01:32:35.616Z,11.00
2023-01-05T01:33:08.381Z,11.00
2023-01-05T01:33:40.862Z,11.00
2023-01-05T01:34:12.805Z,11.00
2023-01-05T01:34:46.345Z,11.10
2023-01-05T01:35:18.186Z,11.10
2023-01-05T01:35:52.840Z,11.00
2023-01-05T01:36:25.585Z,11.10
2023-01-05T01:36:57.803Z,11.00
2023-01-05T01:37:30.573Z,11.10
2023-01-05T01:38:02.375Z,11.00
2023-01-05T01:38:34.385Z,11.10
2023-01-05T01:39:07.145Z,11.10
2023-01-05T01:39:38.933Z,11.10
2023-01-05T01:40:11.720Z,11.00
2023-01-05T01:40:46.631Z,11.00
2023-01-05T01:41:18.544Z,11.00
2023-01-05T01:41:51.789Z,11.00
2023-01-05T01:42:24.629Z,11.00
2023-01-05T01:42:56.622Z,11.00
2023-01-05T01:43:44.532Z,11.00
2023-01-05T01:44:55.299Z,11.00
2023-01-05T01:45:27.153Z,11.00
2023-01-05T01:45:58.965Z,11.00
2023-01-05T01:46:31.798Z,11.00
2023-01-05T01:47:03.805Z,11.00
2023-01-05T01:47:40.203Z,11.00
2023-01-05T01:48:17.230Z,11.00
2023-01-05T01:48:53.020Z,11.00
2023-01-05T01:49:24.882Z,11.00
2023-01-05T01:49:59.746Z,11.00
2023-01-05T01:50:34.493Z,11.00
2023-01-05T01:51:10.835Z,11.00
2023-01-05T01:51:47.923Z,11.00
2023-01-05T01:52:22.526Z,11.00
2023-01-05T01:52:58.527Z,11.10
2023-01-05T01:53:36.259Z,11.00
2023-01-05T01:54:11.128Z,11.00
2023-01-05T01:54:43.371Z,11.00
2023-01-05T01:55:16.563Z,10.90
2023-01-05T01:55:49.565Z,10.90
2023-01-05T01:56:23.970Z,10.90
2023-01-05T01:56:58.136Z,10.90
2023-01-05T01:57:30.270Z,10.90
2023-01-05T01:58:07.184Z,10.90
2023-01-05T01:58:39.083Z,10.90
2023-01-05T01:59:11.516Z,10.90
2023-01-05T01:59:43.656Z,10.80
2023-01-05T02:00:16.979Z,10.80
2023-01-05T02:00:48.874Z,10.80
2023-01-05T02:01:20.968Z,10.80
2023-01-05T02:01:58.321Z,10.90
2023-01-05T02:02:30.593Z,10.90
2023-01-05T02:03:02.966Z,10.90
2023-01-05T02:03:35.867Z,10.90
2023-01-05T02:04:09.437Z,10.90
2023-01-05T02:04:43.453Z,10.90
2023-01-05T02:05:18.694Z,10.90
2023-01-05T02:05:50.543Z,10.90
2023-01-05T02:06:23.973Z,10.90
2023-01-05T02:06:56.853Z,10.90
2023-01-05T02:07:32.504Z,10.90
2023-01-05T02:08:05.989Z,10.90
2023-01-05T02:08:37.769Z,10.90
2023-01-05T02:09:09.738Z,10.90
2023-01-05T02:09:41.610Z,10.90
2023-01-05T02:10:15.162Z,11.00
2023-01-05T02:10:57.650Z,11.00
2023-01-05T02:11:44.639Z,10.90
2023-01-05T02:12:31.975Z,11.00
2023-01-05T02:13:15.594Z,10.90
2023-01-05T02:14:03.713Z,11.00
2023-01-05T02:14:50.237Z,10.90
2023-01-05T02:15:29.395Z,10.90
2023-01-05T02:16:10.632Z,10.90
2023-01-05T02:16:53.419Z,11.00
2023-01-05T02:17:33.718Z,10.90
2023-01-05T02:18:20.679Z,10.90
2023-01-05T02:19:35.585Z,10.90
2023-01-05T02:20:38.720Z,10.90
2023-01-05T02:21:28.135Z,10.90
2023-01-05T02:22:17.815Z,10.90
2023-01-05T02:23:14.724Z,10.90
2023-01-05T02:24:28.346Z,10.90
2023-01-05T02:25:23.298Z,10.90
2023-01-05T02:26:40.523Z,10.90
2023-01-05T02:27:36.930Z,10.90
2023-01-05T02:28:28.808Z,10.90
2023-01-05T02:29:20.042Z,11.00
2023-01-05T02:30:32.205Z,10.90
2023-01-05T02:31:11.576Z,10.90
2023-01-05T02:31:48.561Z,10.90
2023-01-05T02:32:24.410Z,10.90
2023-01-05T02:33:00.854Z,10.90
2023-01-05T02:33:54.747Z,10.90
2023-01-05T02:34:34.317Z,10.90
2023-01-05T02:35:14.171Z,11.00
2023-01-05T02:35:52.788Z,11.00
2023-01-05T02:36:30.145Z,11.00
2023-01-05T02:37:08.431Z,11.00
2023-01-05T02:37:47.889Z,11.00
2023-01-05T02:38:27.234Z,11.10
2023-01-05T02:39:04.968Z,11.10
2023-01-05T02:39:44.601Z,11.10
2023-01-05T02:40:21.707Z,11.10
2023-01-05T02:40:57.654Z,11.10
2023-01-05T02:41:35.849Z,11.10
2023-01-05T02:42:12.793Z,11.20
2023-01-05T02:42:48.902Z,11.20
2023-01-05T02:43:21.181Z,11.20
2023-01-05T02:43:52.988Z,11.20
2023-01-05T02:44:30.135Z,11.20
2023-01-05T02:45:02.500Z,11.20
2023-01-05T02:45:34.299Z,11.20
2023-01-05T02:46:08.591Z,11.20
2023-01-05T02:46:40.438Z,11.20
2023-01-05T02:47:37.374Z,11.20
2023-01-05T02:48:10.959Z,11.10
2023-01-05T02:48:44.351Z,11.10
2023-01-05T02:49:17.764Z,11.10
2023-01-05T02:49:50.670Z,11.20
2023-01-05T02:50:27.951Z,11.10
2023-01-05T02:51:04.590Z,11.10
2023-01-05T02:51:41.079Z,11.10
2023-01-05T02:52:14.636Z,11.10
2023-01-05T02:52:57.087Z,11.10
2023-01-05T02:53:32.716Z,11.00
2023-01-05T02:54:09.569Z,11.00
2023-01-05T02:54:48.750Z,11.00
2023-01-05T02:55:27.455Z,11.00
2023-01-05T02:56:04.123Z,11.00
2023-01-05T02:56:42.230Z,11.00
2023-01-05T02:57:17.886Z,11.00
2023-01-05T02:57:55.970Z,11.00
2023-01-05T02:58:31.997Z,11.00
2023-01-05T02:59:06.979Z,11.00
2023-01-05T02:59:45.402Z,10.90
2023-01-05T03:00:22.172Z,10.90
2023-01-05T03:00:58.244Z,10.80
2023-01-05T03:01:35.092Z,10.80
2023-01-05T03:02:14.050Z,10.80
2023-01-05T03:02:50.335Z,10.80
2023-01-05T03:03:27.070Z,10.70
2023-01-05T03:04:04.961Z,10.80
2023-01-05T03:04:41.137Z,10.70
2023-01-05T03:05:16.531Z,10.70
2023-01-05T03:05:54.899Z,10.70
2023-01-05T03:06:32.972Z,10.70
2023-01-05T03:07:09.291Z,10.60
2023-01-05T03:07:44.866Z,10.60
2023-01-05T03:08:26.424Z,10.60
2023-01-05T03:09:07.134Z,10.60
2023-01-05T03:09:40.925Z,10.60
2023-01-05T03:10:47.676Z,10.70
2023-01-05T03:11:38.399Z,10.70
2023-01-05T03:12:33.990Z,10.60
2023-01-05T03:13:27.254Z,10.60
2023-01-05T03:14:06.383Z,10.50
2023-01-05T03:14:46.215Z,10.50
2023-01-05T03:15:22.559Z,10.50
2023-01-05T03:16:01.769Z,10.50
2023-01-05T03:16:37.861Z,10.50
2023-01-05T03:17:14.477Z,10.50
2023-01-05T03:17:49.169Z,10.50
2023-01-05T03:18:22.612Z,10.40
2023-01-05T03:19:11.913Z,10.40
2023-01-05T03:19:45.798Z,10.40
2023-01-05T03:20:21.628Z,10.40
2023-01-05T03:20:54.750Z,10.40
2023-01-05T03:21:27.402Z,10.40
2023-01-05T03:22:20.760Z,10.40
2023-01-05T03:23:13.626Z,10.40
2023-01-05T03:24:04.202Z,10.40
2023-01-05T03:24:56.206Z,10.30
2023-01-05T03:25:46.903Z,10.30
2023-01-05T03:26:37.359Z,10.30
2023-01-05T03:27:28.474Z,10.30
2023-01-05T03:28:20.327Z,10.30
2023-01-05T03:29:14.674Z,10.30
2023-01-05T03:30:05.127Z,10.30
2023-01-05T03:31:09.736Z,10.30
2023-01-05T03:32:15.569Z,10.30
2023-01-05T03:33:11.527Z,10.30
2023-01-05T03:34:08.038Z,10.30
2023-01-05T03:35:04.719Z,10.30
2023-01-05T03:35:42.213Z,10.30
2023-01-05T03:36:17.840Z,10.30
2023-01-05T03:36:54.534Z,10.30
2023-01-05T03:37:29.023Z,10.30
2023-01-05T03:38:13.420Z,10.30
2023-01-05T03:38:51.478Z,10.30
2023-01-05T03:39:26.529Z,10.30
2023-01-05T03:40:00.268Z,10.30
2023-01-05T03:40:35.615Z,10.30
2023-01-05T03:41:10.093Z,10.30
2023-01-05T03:41:42.605Z,10.30
2023-01-05T03:42:17.079Z,10.30
2023-01-05T03:42:49.174Z,10.30
2023-01-05T03:43:22.158Z,10.40
2023-01-05T03:43:55.103Z,10.40
2023-01-05T03:44:27.166Z,10.40
2023-01-05T03:44:59.308Z,10.40
2023-01-05T03:45:38.870Z,10.40
2023-01-05T03:46:13.773Z,10.40
2023-01-05T03:46:48.023Z,10.40
2023-01-05T03:47:19.844Z,10.40
2023-01-05T03:47:51.619Z,10.40
2023-01-05T03:48:26.594Z,10.40
2023-01-05T03:48:58.450Z,10.40
2023-01-05T03:49:30.494Z,10.50
2023-01-05T03:50:03.363Z,10.50
2023-01-05T03:50:35.254Z,10.40
2023-01-05T03:51:07.779Z,10.40
2023-01-05T03:51:42.155Z,10.40
2023-01-05T03:52:14.166Z,10.40
2023-01-05T03:52:46.001Z,10.50
2023-01-05T03:53:17.824Z,10.50
2023-01-05T03:53:50.589Z,10.50
2023-01-05T03:54:22.492Z,10.50
2023-01-05T03:54:54.278Z,10.50
2023-01-05T03:55:26.330Z,10.50
2023-01-05T03:55:59.240Z,10.50
2023-01-05T03:56:31.129Z,10.60
2023-01-05T03:57:03.943Z,10.60
2023-01-05T03:57:36.211Z,10.60
2023-01-05T03:58:08.218Z,10.50
2023-01-05T03:58:40.967Z,10.60
2023-01-05T03:59:12.744Z,10.60
2023-01-05T03:59:44.539Z,10.50
2023-01-05T04:00:17.981Z,10.60
2023-01-05T04:00:49.864Z,10.60
2023-01-05T04:01:21.724Z,10.60
2023-01-05T04:01:56.070Z,10.60
2023-01-05T04:02:28.227Z,10.50
2023-01-05T04:03:00.280Z,10.60
2023-01-05T04:03:33.365Z,10.60
2023-01-05T04:04:05.406Z,10.60
2023-01-05T04:04:37.219Z,10.60
2023-01-05T04:05:09.259Z,10.60
2023-01-05T04:05:42.000Z,10.60
2023-01-05T04:06:13.885Z,10.60
2023-01-05T04:06:45.658Z,10.60
2023-01-05T04:07:18.444Z,10.60
2023-01-05T04:07:50.247Z,10.60
2023-01-05T04:08:22.094Z,10.60
2023-01-05T04:08:54.815Z,10.70
2023-01-05T04:09:26.604Z,10.70
2023-01-05T04:09:58.439Z,10.60
2023-01-05T04:10:30.309Z,10.70
2023-01-05T04:11:14.714Z,10.70
2023-01-05T04:11:46.508Z,10.70
2023-01-05T04:12:18.285Z,10.70
2023-01-05T04:12:51.044Z,10.70
2023-01-05T04:13:22.971Z,10.70
2023-01-05T04:13:54.769Z,10.70
2023-01-05T04:14:27.638Z,10.60
2023-01-05T04:14:59.452Z,10.70
2023-01-05T04:15:31.252Z,10.70
2023-01-05T04:16:04.213Z,10.70
2023-01-05T04:16:36.163Z,10.70
2023-01-05T04:17:09.350Z,10.70
2023-01-05T04:17:42.119Z,10.70
2023-01-05T04:18:14.066Z,10.70
2023-01-05T04:18:45.949Z,10.70
2023-01-05T04:19:18.767Z,10.80
2023-01-05T04:19:50.524Z,10.80
2023-01-05T04:20:22.362Z,10.80
2023-01-05T04:20:55.614Z,10.80
2023-01-05T04:21:27.428Z,10.80
2023-01-05T04:21:59.318Z,10.80
2023-01-05T04:22:32.099Z,10.80
2023-01-05T04:23:03.900Z,10.80
2023-01-05T04:23:36.094Z,10.80
2023-01-05T04:24:10.722Z,10.80
2023-01-05T04:24:42.505Z,10.80
2023-01-05T04:25:14.385Z,10.80
2023-01-05T04:25:47.936Z,10.80
2023-01-05T04:26:19.972Z,10.80
2023-01-05T04:26:51.804Z,10.80
2023-01-05T04:27:24.588Z,10.90
2023-01-05T04:27:56.413Z,10.90
2023-01-05T04:28:28.263Z,10.90
2023-01-05T04:29:01.047Z,10.90
2023-01-05T04:29:32.908Z,10.90
2023-01-05T04:30:06.988Z,10.90
2023-01-05T04:30:39.128Z,10.90
2023-01-05T04:31:11.020Z,10.90
2023-01-05T04:31:43.813Z,10.90
2023-01-05T04:32:17.009Z,10.90
2023-01-05T04:32:48.821Z,10.90
2023-01-05T04:33:22.511Z,10.90
2023-01-05T04:33:54.270Z,11.00
2023-01-05T04:34:26.052Z,10.90
2023-01-05T04:34:58.805Z,11.00
2023-01-05T04:35:30.639Z,11.00
2023-01-05T04:36:02.523Z,11.00
2023-01-05T04:36:35.465Z,11.00
2023-01-05T04:37:07.451Z,11.00
2023-01-05T04:37:40.376Z,11.00
2023-01-05T04:38:12.679Z,11.00
2023-01-05T04:38:44.555Z,11.00
2023-01-05T04:39:17.921Z,11.10
2023-01-05T04:39:49.726Z,11.10
2023-01-05T04:40:21.522Z,11.00
2023-01-05T04:40:54.535Z,11.00
2023-01-05T04:41:26.336Z,11.10
2023-01-05T04:41:58.138Z,11.10
2023-01-05T04:42:30.903Z,11.10
2023-01-05T04:43:02.763Z,11.10
2023-01-05T04:43:34.547Z,11.00
2023-01-05T04:44:07.326Z,11.10
2023-01-05T04:44:39.109Z,11.10
2023-01-05T04:45:11.617Z,11.10
2023-01-05T04:45:44.356Z,11.10
2023-01-05T04:46:16.301Z,11.10
2023-01-05T04:46:48.261Z,11.10
2023-01-05T04:47:22.420Z,11.10
2023-01-05T04:47:54.227Z,11.10
2023-01-05T04:48:26.137Z,11.10
2023-01-05T04:48:59.011Z,11.10
2023-01-05T04:49:30.828Z,11.10
2023-01-05T04:50:02.936Z,11.10
2023-01-05T04:50:35.701Z,11.10
2023-01-05T04:51:07.632Z,11.10
2023-01-05T04:51:39.503Z,11.10
2023-01-05T04:52:12.306Z,11.10
2023-01-05T04:52:44.352Z,11.10
2023-01-05T04:53:16.123Z,11.10
2023-01-05T04:53:48.866Z,11.10
2023-01-05T04:54:20.715Z,11.10
2023-01-05T04:54:52.470Z,11.10
2023-01-05T04:55:25.295Z,11.10
2023-01-05T04:55:57.116Z,11.10
2023-01-05T04:56:28.899Z,11.10
2023-01-05T04:57:03.427Z,11.20
2023-01-05T04:57:35.231Z,11.20
2023-01-05T04:58:11.814Z,11.20
2023-01-05T04:58:45.059Z,11.10
2023-01-05T04:59:16.949Z,11.10
2023-01-05T04:59:48.735Z,11.10
2023-01-05T05:00:21.674Z,11.10
2023-01-05T05:00:53.519Z,11.10
2023-01-05T05:01:26.250Z,11.10
2023-01-05T05:01:59.216Z,11.10
2023-01-05T05:02:32.908Z,11.10
2023-01-05T05:03:04.929Z,11.10
2023-01-05T05:03:37.924Z,11.10
2023-01-05T05:04:10.027Z,11.10
2023-01-05T05:04:41.839Z,11.20
2023-01-05T05:05:14.724Z,11.10
2023-01-05T05:05:46.539Z,11.10
2023-01-05T05:06:18.462Z,11.10
2023-01-05T05:06:51.352Z,11.10
2023-01-05T05:07:23.522Z,11.10
2023-01-05T05:07:55.387Z,11.10
2023-01-05T05:08:28.235Z,11.10
2023-01-05T05:09:00.035Z,11.10
2023-01-05T05:09:31.903Z,11.10
2023-01-05T05:10:05.705Z,11.10
2023-01-05T05:10:37.531Z,11.10
2023-01-05T05:11:09.485Z,11.10
2023-01-05T05:11:42.290Z,11.10
2023-01-05T05:12:14.376Z,11.10
2023-01-05T05:12:46.272Z,11.20
2023-01-05T05:13:19.033Z,11.20
2023-01-05T05:13:50.935Z,11.10
2023-01-05T05:14:22.759Z,11.10
2023-01-05T05:14:55.562Z,11.20
2023-01-05T05:15:27.382Z,11.20
2023-01-05T05:15:59.254Z,11.20
2023-01-05T05:16:32.122Z,11.20
2023-01-05T05:17:04.401Z,11.20
2023-01-05T05:17:37.550Z,11.20
2023-01-05T05:18:10.356Z,11.20
2023-01-05T05:18:42.232Z,11.10
2023-01-05T05:19:14.287Z,11.10
2023-01-05T05:19:47.057Z,11.10
2023-01-05T05:20:18.894Z,11.10
2023-01-05T05:20:52.720Z,11.10
2023-01-05T05:21:25.683Z,11.10
2023-01-05T05:21:57.483Z,11.20
2023-01-05T05:22:29.355Z,11.20
2023-01-05T05:23:02.149Z,11.20
2023-01-05T05:23:34.020Z,11.20
2023-01-05T05:24:06.670Z,11.20
2023-01-05T05:24:39.435Z,11.20
2023-01-05T05:25:11.232Z,11.20
2023-01-05T05:25:43.177Z,11.20
2023-01-05T05:26:16.055Z,11.20
2023-01-05T05:26:47.910Z,11.20
2023-01-05T05:27:19.931Z,11.20
2023-01-05T05:27:52.714Z,11.20
2023-01-05T05:28:28.038Z,11.20
2023-01-05T05:29:00.030Z,11.20
2023-01-05T05:29:32.919Z,11.20
2023-01-05T05:30:05.933Z,11.20
2023-01-05T05:30:37.781Z,11.20
2023-01-05T05:31:10.615Z,11.20
2023-01-05T05:31:42.494Z,11.20
2023-01-05T05:32:14.453Z,11.20
2023-01-05T05:32:48.537Z,11.20
2023-01-05T05:33:20.371Z,11.20
2023-01-05T05:33:52.184Z,11.20
2023-01-05T05:34:24.999Z,11.20
2023-01-05T05:34:56.780Z,11.20
2023-01-05T05:35:28.592Z,11.20
2023-01-05T05:36:01.383Z,11.20
2023-01-05T05:36:33.254Z,11.20
2023-01-05T05:37:05.322Z,11.20
2023-01-05T05:37:38.158Z,11.20
2023-01-05T05:38:09.956Z,11.20
2023-01-05T05:38:41.866Z,11.20
2023-01-05T05:39:15.870Z,11.20
2023-01-05T05:39:47.701Z,11.20
2023-01-05T05:40:19.518Z,11.10
2023-01-05T05:40:52.604Z,11.10
2023-01-05T05:41:24.499Z,11.20
2023-01-05T05:41:56.331Z,11.10
2023-01-05T05:42:29.089Z,11.10
2023-01-05T05:43:00.874Z,11.10
2023-01-05T05:43:32.652Z,11.20
2023-01-05T05:44:05.509Z,11.20
2023-01-05T05:44:37.293Z,11.20
2023-01-05T05:45:09.989Z,11.20
2023-01-05T05:45:49.604Z,11.20
2023-01-05T05:46:22.409Z,11.20
2023-01-05T05:46:54.371Z,11.20
2023-01-05T05:47:27.177Z,11.20
2023-01-05T05:48:01.201Z,11.20
2023-01-05T05:48:33.006Z,11.20
2023-01-05T05:49:07.040Z,11.20
2023-01-05T05:49:38.933Z,11.20
2023-01-05T05:50:10.889Z,11.20
2023-01-05T05:50:45.208Z,11.20
2023-01-05T05:51:17.006Z,11.20
2023-01-05T05:51:48.865Z,11.20
2023-01-05T05:52:21.606Z,11.20
2023-01-05T05:52:53.473Z,11.20
2023-01-05T05:53:25.296Z,11.20
2023-01-05T05:53:58.033Z,11.20
2023-01-05T05:54:29.798Z,11.20
2023-01-05T05:55:01.645Z,11.10
2023-01-05T05:55:34.682Z,11.10
2023-01-05T05:56:07.033Z,11.10
2023-01-05T05:56:38.877Z,11.10
2023-01-05T05:57:11.756Z,11.20
2023-01-05T05:57:43.616Z,11.10
2023-01-05T05:58:15.528Z,11.20
2023-01-05T05:58:48.294Z,11.20
2023-01-05T05:59:20.359Z,11.20
2023-01-05T05:59:52.199Z,11.20
2023-01-05T06:00:24.956Z,11.20
2023-01-05T06:00:59.038Z,11.20
2023-01-05T06:01:30.994Z,11.10
2023-01-05T06:02:04.208Z,11.10
2023-01-05T06:02:36.154Z,11.10
2023-01-05T06:03:09.567Z,11.20
2023-01-05T06:03:42.386Z,11.20
2023-01-05T06:04:14.253Z,11.20
2023-01-05T06:04:46.246Z,11.20
2023-01-05T06:05:19.084Z,11.20
2023-01-05T06:05:50.949Z,11.20
2023-01-05T06:06:22.875Z,11.20
2023-01-05T06:06:55.722Z,11.20
2023-01-05T06:07:27.546Z,11.10
2023-01-05T06:07:59.401Z,11.20
2023-01-05T06:08:32.543Z,11.10
2023-01-05T06:09:04.561Z,11.20
2023-01-05T06:09:36.502Z,11.20
2023-01-05T06:10:10.055Z,11.20
2023-01-05T06:10:42.007Z,11.20
2023-01-05T06:11:13.962Z,11.20
2023-01-05T06:11:47.071Z,11.20
2023-01-05T06:12:19.044Z,11.20
2023-01-05T06:12:53.123Z,11.20
2023-01-05T06:13:26.231Z,11.20
2023-01-05T06:13:58.033Z,11.20
2023-01-05T06:14:29.967Z,11.20
2023-01-05T06:15:02.774Z,11.20
2023-01-05T06:15:34.554Z,11.20
2023-01-05T06:16:07.962Z,11.20
2023-01-05T06:16:39.848Z,11.20
2023-01-05T06:17:11.688Z,11.20
2023-01-05T06:17:46.185Z,11.20
2023-01-05T06:18:19.505Z,11.20
2023-01-05T06:18:51.326Z,11.30
2023-01-05T06:19:24.161Z,11.20
2023-01-05T06:19:56.066Z,11.20
2023-01-05T06:20:27.926Z,11.20
2023-01-05T06:21:01.965Z,11.30
2023-01-05T06:21:33.941Z,11.20
2023-01-05T06:22:06.715Z,11.30
2023-01-05T06:22:39.589Z,11.20
2023-01-05T06:23:11.444Z,11.20
2023-01-05T06:23:43.305Z,11.20
2023-01-05T06:24:16.163Z,11.20
2023-01-05T06:24:47.983Z,11.20
2023-01-05T06:25:19.811Z,11.20
2023-01-05T06:25:52.606Z,11.20
2023-01-05T06:26:25.143Z,11.20
2023-01-05T06:26:57.137Z,11.20
2023-01-05T06:27:30.019Z,11.20
2023-01-05T06:28:02.445Z,11.20
2023-01-05T06:28:35.257Z,11.20
2023-01-05T06:29:07.102Z,11.20
2023-01-05T06:29:38.982Z,11.20
2023-01-05T06:30:12.667Z,11.20
2023-01-05T06:30:44.507Z,11.20
2023-01-05T06:31:16.329Z,11.20
2023-01-05T06:31:49.185Z,11.20
2023-01-05T06:32:21.100Z,11.20
2023-01-05T06:32:52.946Z,11.20
2023-01-05T06:33:27.053Z,11.20
2023-01-05T06:33:58.879Z,11.20
2023-01-05T06:34:31.708Z,11.20
2023-01-05T06:35:03.793Z,11.20
2023-01-05T06:35:35.657Z,11.20
2023-01-05T06:36:09.224Z,11.20
2023-01-05T06:36:41.108Z,11.20
2023-01-05T06:37:13.973Z,11.20
2023-01-05T06:37:45.819Z,11.20
2023-01-05T06:38:18.487Z,11.10
2023-01-05T06:38:51.281Z,11.10
2023-01-05T06:39:23.140Z,11.20
2023-01-05T06:39:56.192Z,11.20
2023-01-05T06:40:29.090Z,11.20
2023-01-05T06:41:00.920Z,11.20
2023-01-05T06:41:35.078Z,11.20
2023-01-05T06:42:07.901Z,11.20
2023-01-05T06:42:40.032Z,11.20
2023-01-05T06:43:12.021Z,11.10
2023-01-05T06:43:44.815Z,11.10
2023-01-05T06:44:16.663Z,11.10
2023-01-05T06:44:49.509Z,11.10
2023-01-05T06:45:21.451Z,11.10
2023-01-05T06:45:53.311Z,11.20
2023-01-05T06:46:26.148Z,11.10
2023-01-05T06:46:57.965Z,11.20
2023-01-05T06:47:29.783Z,11.20
2023-01-05T06:48:02.679Z,11.20
2023-01-05T06:48:35.869Z,11.20
2023-01-05T06:49:08.272Z,11.20
2023-01-05T06:49:41.167Z,11.20
2023-01-05T06:50:12.968Z,11.10
2023-01-05T06:50:45.841Z,11.10
2023-01-05T06:51:17.712Z,11.10
2023-01-05T06:51:49.473Z,11.10
2023-01-05T06:52:22.246Z,11.10
2023-01-05T06:52:54.094Z,11.10
2023-01-05T06:53:25.905Z,11.10
2023-01-05T06:53:58.666Z,11.10
2023-01-05T06:54:30.466Z,11.10
2023-01-05T06:55:02.605Z,11.10
2023-01-05T06:55:35.345Z,11.10
2023-01-05T06:56:07.731Z,11.10
2023-01-05T06:56:39.573Z,11.10
2023-01-05T06:57:12.391Z,11.10
2023-01-05T06:57:44.226Z,11.10
2023-01-05T06:58:16.022Z,11.10
2023-01-05T06:58:48.794Z,11.10
2023-01-05T06:59:20.629Z,11.10
2023-01-05T06:59:52.421Z,11.10
2023-01-05T07:00:25.226Z,11.10
2023-01-05T07:00:57.151Z,11.10
2023-01-05T07:01:29.155Z,11.10
2023-01-05T07:02:02.083Z,11.10
2023-01-05T07:02:33.961Z,11.10
2023-01-05T07:03:06.801Z,11.10
2023-01-05T07:03:41.069Z,11.10
2023-01-05T07:04:13.002Z,11.00
2023-01-05T07:04:44.885Z,11.00
2023-01-05T07:05:18.037Z,11.00
2023-01-05T07:05:49.822Z,11.00
2023-01-05T07:06:21.674Z,11.00
2023-01-05T07:06:54.454Z,11.00
2023-01-05T07:07:26.401Z,11.00
2023-01-05T07:07:59.168Z,11.10
2023-01-05T07:08:31.030Z,11.10
2023-01-05T07:09:03.474Z,11.00
2023-01-05T07:09:36.225Z,11.00
2023-01-05T07:10:08.990Z,11.00
2023-01-05T07:10:40.785Z,11.00
2023-01-05T07:11:14.273Z,11.00
2023-01-05T07:11:46.075Z,11.10
2023-01-05T07:12:18.275Z,11.00
2023-01-05T07:12:51.037Z,11.00
2023-01-05T07:13:22.862Z,11.00
2023-01-05T07:13:54.652Z,11.00
2023-01-05T07:14:27.452Z,11.00
2023-01-05T07:14:59.265Z,11.10
2023-01-05T07:15:31.054Z,11.00
2023-01-05T07:16:03.887Z,11.00
2023-01-05T07:16:35.771Z,11.00
2023-01-05T07:17:08.378Z,11.00
2023-01-05T07:17:41.140Z,11.00
2023-01-05T07:18:12.972Z,11.00
2023-01-05T07:18:46.175Z,11.00
2023-01-05T07:19:18.942Z,11.00
2023-01-05T07:19:50.780Z,11.00
2023-01-05T07:20:23.591Z,11.00
2023-01-05T07:20:55.368Z,11.00
2023-01-05T07:21:27.170Z,11.00
2023-01-05T07:22:00.097Z,11.00
2023-01-05T07:22:32.036Z,11.00
2023-01-05T07:23:03.956Z,11.00
2023-01-05T07:23:37.768Z,11.00
2023-01-05T07:24:09.957Z,11.00
2023-01-05T07:24:42.683Z,11.00
2023-01-05T07:25:14.567Z,11.00
2023-01-05T07:25:47.283Z,11.00
2023-01-05T07:26:19.113Z,11.00
2023-01-05T07:26:51.123Z,11.00